createdAt,value
2023-04-20T00:02:17.139Z,9.79
2023-04-20T00:07:39.243Z,9.82
2023-04-20T00:13:01.035Z,9.70
2023-04-20T00:18:22.866Z,9.72
2023-04-20T00:23:44.777Z,9.84
2023-04-20T00:29:06.733Z,9.90
2023-04-20T00:34:28.616Z,9.72
2023-04-20T00:39:50.510Z,9.60
2023-04-20T00:45:12.691Z,9.70
2023-04-20T00:50:35.042Z,9.67
2023-04-20T00:55:57.028Z,9.74
2023-04-20T01:01:19.181Z,9.64
2023-04-20T01:06:41.109Z,9.82
2023-04-20T01:12:03.046Z,9.84
2023-04-20T01:17:24.962Z,9.87
2023-04-20T01:22:48.678Z,9.70
2023-04-20T01:28:11.189Z,9.80
2023-04-20T01:33:33.889Z,9.85
2023-04-20T01:38:56.475Z,9.70
2023-04-20T01:44:18.350Z,9.77
2023-04-20T01:49:40.276Z,9.76
2023-04-20T01:55:02.239Z,9.81
2023-04-20T02:00:24.098Z,9.92
2023-04-20T02:05:45.958Z,9.78
2023-04-20T02:11:07.954Z,9.77
2023-04-20T02:16:29.824Z,9.77
2023-04-20T02:21:51.706Z,9.57
2023-04-20T02:27:13.565Z,9.84
2023-04-20T02:32:35.731Z,9.67
2023-04-20T02:37:57.604Z,9.70
2023-04-20T02:43:19.644Z,9.69
2023-04-20T02:48:41.486Z,9.80
2023-04-20T02:54:03.366Z,9.66
2023-04-20T02:59:25.307Z,9.64
2023-04-20T03:04:47.279Z,9.65
2023-04-20T03:10:09.738Z,9.62
2023-04-20T03:15:32.469Z,9.53
2023-04-20T03:20:54.422Z,9.65
2023-04-20T03:26:16.439Z,9.63
2023-04-20T03:31:38.481Z,9.49
2023-04-20T03:37:00.389Z,9.61
2023-04-20T03:42:22.346Z,9.51
2023-04-20T03:47:44.347Z,9.45
2023-04-20T03:53:06.226Z,9.40
2023-04-20T03:58:28.097Z,9.56
2023-04-20T04:03:50.212Z,9.33
2023-04-20T04:09:12.206Z,9.40
2023-04-20T04:14:34.900Z,9.52
2023-04-20T04:19:56.753Z,9.37
2023-04-20T04:25:18.641Z,9.34
2023-04-20T04:30:40.807Z,9.56
2023-04-20T04:36:02.708Z,9.69
2023-04-20T04:41:24.551Z,9.91
2023-04-20T04:46:46.391Z,9.79
2023-04-20T04:52:09.819Z,9.93
2023-04-20T04:57:31.626Z,10.22
2023-04-20T05:02:53.601Z,10.48
2023-04-20T05:08:15.493Z,10.40
2023-04-20T05:13:37.328Z,10.67
2023-04-20T05:18:59.196Z,11.34
2023-04-20T05:24:21.062Z,15.49
2023-04-20T05:29:42.892Z,13.24
2023-04-20T05:35:05.298Z,12.55
2023-04-20T05:40:27.212Z,11.92
2023-04-20T05:45:49.311Z,11.83
2023-04-20T05:51:11.244Z,12.34
2023-04-20T05:56:33.084Z,12.90
2023-04-20T06:01:55.022Z,14.64
2023-04-20T06:07:16.885Z,17.90
2023-04-20T06:12:38.736Z,19.86
2023-04-20T06:18:00.580Z,21.64
2023-04-20T06:23:22.435Z,24.32
2023-04-20T06:28:44.266Z,25.13
2023-04-20T06:34:06.076Z,25.27
2023-04-20T06:39:27.948Z,28.18
2023-04-20T06:44:49.778Z,29.21
2023-04-20T06:50:11.809Z,29.62
2023-04-20T06:55:33.637Z,25.00
2023-04-20T07:00:55.427Z,23.17
2023-04-20T07:06:17.227Z,23.87
2023-04-20T07:11:39.068Z,24.33
2023-04-20T07:17:00.897Z,24.33
2023-04-20T07:22:22.909Z,25.75
2023-04-20T07:27:44.776Z,26.40
2023-04-20T07:33:06.640Z,27.98
2023-04-20T07:38:28.535Z,27.94
2023-04-20T07:43:50.350Z,27.50
2023-04-20T07:49:12.156Z,26.26
2023-04-20T07:54:34.037Z,27.99
2023-04-20T07:59:55.935Z,26.46
2023-04-20T08:05:18.176Z,27.23
2023-04-20T08:10:40.207Z,25.38
2023-04-20T08:16:02.062Z,25.35
2023-04-20T08:21:25.488Z,23.93
2023-04-20T08:26:48.104Z,26.53
2023-04-20T08:32:10.083Z,26.75
2023-04-20T08:37:33.098Z,27.35
2023-04-20T08:42:55.026Z,25.61
2023-04-20T08:48:17.481Z,24.72
2023-04-20T08:53:39.316Z,23.24
2023-04-20T08:59:02.189Z,22.84
2023-04-20T09:04:26.658Z,23.11
2023-04-20T09:09:59.192Z,22.47
2023-04-20T09:15:29.601Z,21.85
2023-04-20T09:20:51.435Z,20.88
2023-04-20T09:26:18.169Z,21.44
2023-04-20T09:31:40.059Z,20.96
2023-04-20T09:37:01.965Z,21.02
2023-04-20T09:42:27.960Z,20.78
2023-04-20T09:47:50.460Z,21.11
2023-04-20T09:53:13.513Z,20.52
2023-04-20T09:58:36.564Z,21.33
2023-04-20T10:04:00.278Z,20.30
2023-04-20T10:09:25.017Z,19.20
2023-04-20T10:14:55.712Z,19.79
2023-04-20T10:20:26.566Z,19.98
2023-04-20T10:25:59.474Z,19.39
2023-04-20T10:31:21.351Z,19.20
2023-04-20T10:36:43.199Z,18.95
2023-04-20T10:42:05.289Z,19.08
2023-04-20T10:47:31.540Z,18.90
2023-04-20T10:52:53.398Z,18.73
2023-04-20T10:58:22.943Z,19.29
2023-04-20T11:03:50.322Z,19.57
2023-04-20T11:09:25.982Z,19.42
2023-04-20T11:14:55.918Z,20.61
2023-04-20T11:20:17.924Z,20.44
2023-04-20T11:25:49.341Z,20.11
2023-04-20T11:31:17.404Z,20.46
2023-04-20T11:36:39.366Z,19.77
2023-04-20T11:42:01.158Z,20.16
2023-04-20T11:47:23.058Z,20.49
2023-04-20T11:58:05.062Z,19.72
2023-04-20T12:03:27.251Z,19.70
2023-04-20T12:08:50.562Z,19.09
2023-04-20T12:14:12.481Z,19.28
2023-04-20T12:19:34.310Z,19.70
2023-04-20T12:24:56.128Z,20.20
2023-04-20T12:30:17.987Z,20.28
2023-04-20T12:35:39.922Z,20.40
2023-04-20T12:41:02.236Z,20.72
2023-04-20T12:46:24.183Z,20.37
2023-04-20T12:51:46.073Z,20.09
2023-04-20T12:57:07.874Z,20.33
2023-04-20T13:02:29.836Z,20.61
2023-04-20T13:07:52.031Z,20.45
2023-04-20T13:13:14.078Z,20.42
2023-04-20T13:18:35.962Z,20.18
2023-04-20T13:23:57.860Z,20.22
2023-04-20T13:29:19.896Z,19.48
2023-04-20T13:34:41.927Z,20.21
2023-04-20T13:40:04.057Z,19.84
2023-04-20T13:45:25.984Z,19.68
2023-04-20T13:50:47.801Z,19.49
2023-04-20T13:56:09.676Z,19.22
2023-04-20T14:01:31.683Z,19.55
2023-04-20T14:06:53.612Z,19.71
2023-04-20T14:12:16.800Z,19.49
2023-04-20T14:17:38.698Z,20.02
2023-04-20T14:23:00.572Z,20.76
2023-04-20T14:28:22.638Z,20.06
2023-04-20T14:33:44.509Z,20.45
2023-04-20T14:39:06.471Z,19.98
2023-04-20T14:44:28.319Z,19.60
2023-04-20T14:49:50.186Z,19.26
2023-04-20T14:55:12.302Z,19.83
2023-04-20T15:00:34.134Z,20.12
2023-04-20T15:06:01.550Z,20.15
2023-04-20T15:11:23.430Z,19.98
2023-04-20T15:16:45.268Z,19.45
2023-04-20T15:22:07.080Z,19.49
2023-04-20T15:27:28.925Z,19.45
2023-04-20T15:32:50.767Z,19.69
2023-04-20T15:38:12.649Z,19.12
2023-04-20T15:43:34.558Z,19.24
2023-04-20T15:48:56.493Z,19.52
2023-04-20T15:54:18.616Z,19.05
2023-04-20T15:59:40.615Z,18.56
2023-04-20T16:05:02.671Z,18.62
2023-04-20T16:10:24.884Z,18.60
2023-04-20T16:15:46.955Z,18.46
2023-04-20T16:21:08.873Z,18.39
2023-04-20T16:26:30.767Z,18.42
2023-04-20T16:31:52.687Z,18.26
2023-04-20T16:37:14.626Z,18.33
2023-04-20T16:42:36.578Z,18.38
2023-04-20T16:47:58.520Z,18.16
2023-04-20T16:53:20.389Z,18.08
2023-04-20T16:58:42.171Z,18.05
2023-04-20T17:04:04.054Z,17.98
2023-04-20T17:09:25.984Z,17.86
2023-04-20T17:14:47.862Z,17.79
2023-04-20T17:20:10.070Z,17.65
2023-04-20T17:25:31.978Z,17.52
2023-04-20T17:30:53.903Z,17.41
2023-04-20T17:36:15.718Z,17.29
2023-04-20T17:41:37.592Z,17.30
2023-04-20T17:46:59.483Z,17.02
2023-04-20T17:52:21.443Z,16.93
2023-04-20T17:57:43.267Z,16.69
2023-04-20T18:03:05.224Z,16.61
2023-04-20T18:08:27.231Z,16.49
2023-04-20T18:13:49.151Z,16.36
2023-04-20T18:19:10.972Z,16.22
2023-04-20T18:24:33.131Z,16.19
2023-04-20T18:29:55.201Z,16.11
2023-04-20T18:35:17.115Z,16.03
2023-04-20T18:40:39.329Z,15.90
2023-04-20T18:46:01.259Z,15.70
2023-04-20T18:51:23.085Z,15.62
2023-04-20T18:56:44.881Z,15.53
2023-04-20T19:02:07.039Z,15.42
2023-04-20T19:07:29.045Z,15.38
2023-04-20T19:12:50.869Z,15.18
2023-04-20T19:18:12.783Z,15.03
2023-04-20T19:23:34.638Z,14.90
2023-04-20T19:28:56.539Z,14.68
2023-04-20T19:34:18.663Z,14.67
2023-04-20T19:39:40.758Z,14.44
2023-04-20T19:45:02.583Z,14.42
2023-04-20T19:50:24.460Z,14.33
2023-04-20T19:55:46.306Z,14.31
2023-04-20T20:01:08.269Z,14.10
2023-04-20T20:06:30.160Z,14.03
2023-04-20T20:11:52.014Z,13.86
2023-04-20T20:17:14.051Z,13.95
2023-04-20T20:22:35.893Z,14.00
2023-04-20T20:27:57.832Z,13.80
2023-04-20T20:33:19.691Z,13.76
2023-04-20T20:38:41.559Z,13.53
2023-04-20T20:44:03.394Z,13.48
2023-04-20T20:49:25.241Z,13.46
2023-04-20T20:54:47.309Z,13.09
2023-04-20T21:00:09.764Z,13.01
2023-04-20T21:05:33.653Z,12.96
2023-04-20T21:10:56.994Z,12.81
2023-04-20T21:16:19.820Z,12.80
2023-04-20T21:21:41.781Z,12.77
2023-04-20T21:27:03.705Z,12.66
2023-04-20T21:32:25.759Z,12.32
2023-04-20T21:37:47.845Z,12.00
2023-04-20T21:43:09.803Z,12.07
2023-04-20T21:48:31.640Z,12.04
2023-04-20T21:53:53.492Z,11.91
2023-04-20T21:59:15.513Z,11.76
2023-04-20T22:04:37.660Z,11.68
2023-04-20T22:10:01.109Z,11.64
2023-04-20T22:15:23.252Z,11.56
2023-04-20T22:20:45.293Z,11.47
2023-04-20T22:26:07.215Z,11.41
2023-04-20T22:31:29.388Z,11.39
2023-04-20T22:36:51.299Z,11.27
2023-04-20T22:42:13.173Z,11.22
2023-04-20T22:47:35.035Z,11.06
2023-04-20T22:52:56.953Z,11.10
2023-04-20T22:58:18.838Z,11.13
2023-04-20T23:03:40.774Z,10.86
2023-04-20T23:09:02.743Z,10.89
2023-04-20T23:14:25.522Z,10.85
2023-04-20T23:19:47.362Z,10.84
2023-04-20T23:25:09.872Z,10.87
2023-04-20T23:30:31.971Z,10.74
2023-04-20T23:35:53.890Z,10.84
2023-04-20T23:41:15.803Z,10.89
2023-04-20T23:46:37.667Z,10.82
2023-04-20T23:51:59.518Z,10.77
2023-04-20T23:57:21.430Z,10.59
